sensor_id;sensor_type;location;lat;lon;timestamp;pressure;altitude;pressure_sealevel;temperature;humidity
21109;BME280;10712;52.944;9.098;2023-05-13T00:01:28;101972.19;;;19.81;46.93
21109;BME280;10712;52.944;9.098;2023-05-13T00:03:54;101979.56;;;19.79;46.94
21109;BME280;10712;52.944;9.098;2023-05-13T00:06:19;101970.72;;;19.77;47.00
21109;BME280;10712;52.944;9.098;2023-05-13T00:08:46;101972.88;;;19.72;47.09
21109;BME280;10712;52.944;9.098;2023-05-13T00:11:11;101975.47;;;19.73;47.04
21109;BME280;10712;52.944;9.098;2023-05-13T00:13:37;101968.34;;;19.72;47.02
21109;BME280;10712;52.944;9.098;2023-05-13T00:16:03;101969.47;;;19.70;47.32
21109;BME280;10712;52.944;9.098;2023-05-13T00:18:29;101973.75;;;19.72;47.24
21109;BME280;10712;52.944;9.098;2023-05-13T00:20:55;101980.78;;;19.75;47.11
21109;BME280;10712;52.944;9.098;2023-05-13T00:23:21;101970.94;;;19.74;47.38
21109;BME280;10712;52.944;9.098;2023-05-13T00:25:47;101973.75;;;19.72;47.28
21109;BME280;10712;52.944;9.098;2023-05-13T00:28:13;101969.47;;;19.70;47.43
21109;BME280;10712;52.944;9.098;2023-05-13T00:30:41;101971.31;;;19.69;47.37
21109;BME280;10712;52.944;9.098;2023-05-13T00:33:10;101973.16;;;19.69;47.42
21109;BME280;10712;52.944;9.098;2023-05-13T00:35:36;101971.63;;;19.64;47.47
21109;BME280;10712;52.944;9.098;2023-05-13T00:38:02;101967.25;;;19.63;47.31
21109;BME280;10712;52.944;9.098;2023-05-13T00:40:28;101969.31;;;19.60;47.22
21109;BME280;10712;52.944;9.098;2023-05-13T00:42:55;101970.16;;;19.60;47.45
21109;BME280;10712;52.944;9.098;2023-05-13T00:45:21;101970.38;;;19.57;47.43
21109;BME280;10712;52.944;9.098;2023-05-13T00:47:47;101973.09;;;19.57;47.46
21109;BME280;10712;52.944;9.098;2023-05-13T00:50:14;101968.69;;;19.56;47.57
21109;BME280;10712;52.944;9.098;2023-05-13T00:52:41;101975.19;;;19.54;47.58
21109;BME280;10712;52.944;9.098;2023-05-13T00:55:09;101978.00;;;19.52;47.69
21109;BME280;10712;52.944;9.098;2023-05-13T00:57:36;101979.09;;;19.50;47.74
21109;BME280;10712;52.944;9.098;2023-05-13T01:00:03;101976.50;;;19.48;47.87
21109;BME280;10712;52.944;9.098;2023-05-13T01:02:51;101972.16;;;19.46;47.92
21109;BME280;10712;52.944;9.098;2023-05-13T01:05:44;101973.25;;;19.43;47.74
21109;BME280;10712;52.944;9.098;2023-05-13T01:11:13;101969.88;;;19.28;48.06
21109;BME280;10712;52.944;9.098;2023-05-13T01:13:43;101968.38;;;19.24;48.02
21109;BME280;10712;52.944;9.098;2023-05-13T01:16:17;101973.16;;;19.21;47.95
21109;BME280;10712;52.944;9.098;2023-05-13T01:18:53;101974.25;;;19.18;48.29
21109;BME280;10712;52.944;9.098;2023-05-13T01:21:25;101976.34;;;19.15;48.28
21109;BME280;10712;52.944;9.098;2023-05-13T01:23:51;101970.38;;;19.10;48.42
21109;BME280;10712;52.944;9.098;2023-05-13T01:26:19;101975.78;;;18.86;48.71
21109;BME280;10712;52.944;9.098;2023-05-13T01:28:45;101980.00;;;18.77;49.10
21109;BME280;10712;52.944;9.098;2023-05-13T01:31:13;101982.19;;;18.72;49.35
21109;BME280;10712;52.944;9.098;2023-05-13T01:33:41;101985.84;;;18.71;49.29
21109;BME280;10712;52.944;9.098;2023-05-13T01:36:08;101984.13;;;18.70;49.42
21109;BME280;10712;52.944;9.098;2023-05-13T01:38:38;101984.34;;;18.67;49.33
21109;BME280;10712;52.944;9.098;2023-05-13T01:41:05;101983.50;;;18.67;49.42
21109;BME280;10712;52.944;9.098;2023-05-13T01:43:31;101990.84;;;18.65;49.34
21109;BME280;10712;52.944;9.098;2023-05-13T01:45:57;101985.53;;;18.63;49.51
21109;BME280;10712;52.944;9.098;2023-05-13T01:48:25;101989.66;;;18.56;49.26
21109;BME280;10712;52.944;9.098;2023-05-13T01:50:52;101985.44;;;18.52;49.47
21109;BME280;10712;52.944;9.098;2023-05-13T01:53:18;101985.44;;;18.52;49.54
21109;BME280;10712;52.944;9.098;2023-05-13T01:55:46;101989.31;;;18.48;49.59
21109;BME280;10712;52.944;9.098;2023-05-13T01:58:12;101993.13;;;18.45;49.67
21109;BME280;10712;52.944;9.098;2023-05-13T02:00:38;101985.56;;;18.38;49.68
21109;BME280;10712;52.944;9.098;2023-05-13T02:03:04;101990.41;;;18.33;49.70
21109;BME280;10712;52.944;9.098;2023-05-13T02:05:30;101985.25;;;18.30;49.79
21109;BME280;10712;52.944;9.098;2023-05-13T02:08:00;101989.31;;;18.35;49.69
21109;BME280;10712;52.944;9.098;2023-05-13T02:10:26;101991.81;;;18.38;49.66
21109;BME280;10712;52.944;9.098;2023-05-13T02:12:52;101982.72;;;18.39;49.68
21109;BME280;10712;52.944;9.098;2023-05-13T02:15:18;101986.72;;;18.34;49.60
21109;BME280;10712;52.944;9.098;2023-05-13T02:17:43;101985.25;;;18.30;49.66
21109;BME280;10712;52.944;9.098;2023-05-13T02:20:10;101985.69;;;18.24;49.64
21109;BME280;10712;52.944;9.098;2023-05-13T02:22:36;101986.84;;;18.20;49.82
21109;BME280;10712;52.944;9.098;2023-05-13T02:25:06;101979.84;;;18.17;49.83
21109;BME280;10712;52.944;9.098;2023-05-13T02:27:32;101983.72;;;18.13;49.79
21109;BME280;10712;52.944;9.098;2023-05-13T02:29:57;101988.69;;;18.06;50.00
21109;BME280;10712;52.944;9.098;2023-05-13T02:32:24;101988.91;;;18.03;50.14
21109;BME280;10712;52.944;9.098;2023-05-13T02:34:49;101990.84;;;18.01;50.19
21109;BME280;10712;52.944;9.098;2023-05-13T02:37:15;101984.16;;;17.94;50.32
21109;BME280;10712;52.944;9.098;2023-05-13T02:39:49;101973.38;;;17.94;50.10
21109;BME280;10712;52.944;9.098;2023-05-13T02:42:15;101984.56;;;17.88;50.52
21109;BME280;10712;52.944;9.098;2023-05-13T02:44:41;101981.78;;;18.02;50.09
21109;BME280;10712;52.944;9.098;2023-05-13T02:47:09;101983.81;;;17.99;50.29
21109;BME280;10712;52.944;9.098;2023-05-13T02:49:34;101986.41;;;18.00;50.25
21109;BME280;10712;52.944;9.098;2023-05-13T02:52:00;101989.22;;;17.99;50.25
21109;BME280;10712;52.944;9.098;2023-05-13T02:54:32;101985.25;;;18.04;50.18
21109;BME280;10712;52.944;9.098;2023-05-13T02:56:58;101986.22;;;18.03;50.04
21109;BME280;10712;52.944;9.098;2023-05-13T02:59:24;101979.63;;;18.07;50.08
21109;BME280;10712;52.944;9.098;2023-05-13T03:01:50;101985.13;;;18.06;50.21
21109;BME280;10712;52.944;9.098;2023-05-13T03:04:15;101982.56;;;18.04;50.08
21109;BME280;10712;52.944;9.098;2023-05-13T03:06:41;101983.72;;;18.00;50.11
21109;BME280;10712;52.944;9.098;2023-05-13T03:09:07;101982.00;;;17.99;50.17
21109;BME280;10712;52.944;9.098;2023-05-13T03:11:33;101983.72;;;18.00;50.11
21109;BME280;10712;52.944;9.098;2023-05-13T03:13:59;101985.44;;;18.01;50.28
21109;BME280;10712;52.944;9.098;2023-05-13T03:16:24;101985.25;;;18.04;50.25
21109;BME280;10712;52.944;9.098;2023-05-13T03:18:51;101982.75;;;18.01;50.21
21109;BME280;10712;52.944;9.098;2023-05-13T03:21:18;101986.06;;;17.92;50.14
21109;BME280;10712;52.944;9.098;2023-05-13T03:23:44;101991.69;;;17.89;50.23
21109;BME280;10712;52.944;9.098;2023-05-13T03:26:10;101990.41;;;17.82;50.19
21109;BME280;10712;52.944;9.098;2023-05-13T03:28:36;101998.97;;;17.62;50.69
21109;BME280;10712;52.944;9.098;2023-05-13T03:31:02;101991.63;;;17.64;50.83
21109;BME280;10712;52.944;9.098;2023-05-13T03:33:30;101987.78;;;17.68;50.71
21109;BME280;10712;52.944;9.098;2023-05-13T03:35:56;101987.78;;;17.68;50.69
21109;BME280;10712;52.944;9.098;2023-05-13T03:38:26;101992.94;;;17.71;50.49
21109;BME280;10712;52.944;9.098;2023-05-13T03:40:53;102000.50;;;17.66;50.38
21109;BME280;10712;52.944;9.098;2023-05-13T03:43:19;101994.22;;;17.65;50.30
21109;BME280;10712;52.944;9.098;2023-05-13T03:45:51;101998.28;;;17.58;50.28
21109;BME280;10712;52.944;9.098;2023-05-13T03:48:19;101996.66;;;17.56;50.34
21109;BME280;10712;52.944;9.098;2023-05-13T03:50:45;101996.88;;;17.53;50.22
21109;BME280;10712;52.944;9.098;2023-05-13T03:53:12;101997.63;;;17.55;50.37
21109;BME280;10712;52.944;9.098;2023-05-13T03:55:39;102001.50;;;17.51;50.44
21109;BME280;10712;52.944;9.098;2023-05-13T03:58:15;102001.50;;;17.51;50.33
21109;BME280;10712;52.944;9.098;2023-05-13T04:00:42;102004.59;;;17.45;50.64
21109;BME280;10712;52.944;9.098;2023-05-13T04:03:11;102006.13;;;17.49;50.53
21109;BME280;10712;52.944;9.098;2023-05-13T04:05:37;102008.84;;;17.49;50.68
21109;BME280;10712;52.944;9.098;2023-05-13T04:08:03;102007.31;;;17.57;50.45
21109;BME280;10712;52.944;9.098;2023-05-13T04:10:29;102009.75;;;17.62;50.47
21109;BME280;10712;52.944;9.098;2023-05-13T04:12:56;102017.84;;;17.62;50.55
21109;BME280;10712;52.944;9.098;2023-05-13T04:15:22;102018.19;;;17.70;50.43
21109;BME280;10712;52.944;9.098;2023-05-13T04:17:48;102010.84;;;17.72;50.33
21109;BME280;10712;52.944;9.098;2023-05-13T04:20:14;102016.25;;;17.72;50.54
21109;BME280;10712;52.944;9.098;2023-05-13T04:22:39;102021.72;;;17.70;50.73
21109;BME280;10712;52.944;9.098;2023-05-13T04:25:06;102020.22;;;17.66;50.82
21109;BME280;10712;52.944;9.098;2023-05-13T04:27:33;102017.53;;;17.66;50.89
21109;BME280;10712;52.944;9.098;2023-05-13T04:30:09;102025.28;;;17.71;50.95
21109;BME280;10712;52.944;9.098;2023-05-13T04:32:37;102022.72;;;17.69;51.18
21109;BME280;10712;52.944;9.098;2023-05-13T04:35:06;102020.91;;;17.70;51.18
21109;BME280;10712;52.944;9.098;2023-05-13T04:37:32;102024.44;;;17.70;51.16
21109;BME280;10712;52.944;9.098;2023-05-13T04:40:03;102026.59;;;17.78;51.26
21109;BME280;10712;52.944;9.098;2023-05-13T04:42:29;102026.41;;;17.81;51.33
21109;BME280;10712;52.944;9.098;2023-05-13T04:44:55;102028.78;;;17.86;51.20
21109;BME280;10712;52.944;9.098;2023-05-13T04:47:22;102034.63;;;17.92;51.30
21109;BME280;10712;52.944;9.098;2023-05-13T04:49:47;102030.94;;;17.93;51.22
21109;BME280;10712;52.944;9.098;2023-05-13T04:52:13;102036.78;;;18.00;51.28
21109;BME280;10712;52.944;9.098;2023-05-13T04:54:39;102039.19;;;18.04;51.38
21109;BME280;10712;52.944;9.098;2023-05-13T04:57:06;102038.09;;;18.07;51.41
21109;BME280;10712;52.944;9.098;2023-05-13T04:59:31;102041.47;;;18.10;51.32
21109;BME280;10712;52.944;9.098;2023-05-13T05:01:57;102037.47;;;18.16;51.15
21109;BME280;10712;52.944;9.098;2023-05-13T05:04:24;102048.47;;;18.26;51.07
21109;BME280;10712;52.944;9.098;2023-05-13T05:06:50;102042.53;;;18.33;50.98
21109;BME280;10712;52.944;9.098;2023-05-13T05:09:16;102042.97;;;18.40;50.87
21109;BME280;10712;52.944;9.098;2023-05-13T05:11:45;102036.41;;;18.44;50.69
21109;BME280;10712;52.944;9.098;2023-05-13T05:14:11;102040.81;;;18.45;50.78
21109;BME280;10712;52.944;9.098;2023-05-13T05:16:37;102040.06;;;18.56;50.42
21109;BME280;10712;52.944;9.098;2023-05-13T05:19:03;102038.56;;;18.64;50.25
21109;BME280;10712;52.944;9.098;2023-05-13T05:21:29;102047.00;;;18.72;50.12
21109;BME280;10712;52.944;9.098;2023-05-13T05:23:56;102042.97;;;18.78;50.00
21109;BME280;10712;52.944;9.098;2023-05-13T05:26:24;102046.97;;;18.85;50.08
21109;BME280;10712;52.944;9.098;2023-05-13T05:28:50;102041.22;;;18.89;49.79
21109;BME280;10712;52.944;9.098;2023-05-13T05:31:16;102045.44;;;18.94;49.84
21109;BME280;10712;52.944;9.098;2023-05-13T05:33:43;102038.63;;;19.01;49.73
21109;BME280;10712;52.944;9.098;2023-05-13T05:36:09;102042.81;;;19.05;49.98
21109;BME280;10712;52.944;9.098;2023-05-13T05:38:35;102046.31;;;19.18;49.46
21109;BME280;10712;52.944;9.098;2023-05-13T05:41:02;102052.66;;;19.29;49.27
21109;BME280;10712;52.944;9.098;2023-05-13T05:43:28;102050.34;;;19.36;49.12
21109;BME280;10712;52.944;9.098;2023-05-13T05:45:54;102054.31;;;19.43;48.98
21109;BME280;10712;52.944;9.098;2023-05-13T05:48:21;102051.53;;;19.45;49.08
21109;BME280;10712;52.944;9.098;2023-05-13T05:50:47;102059.72;;;19.43;48.94
21109;BME280;10712;52.944;9.098;2023-05-13T05:53:17;102051.97;;;19.51;49.10
21109;BME280;10712;52.944;9.098;2023-05-13T05:55:44;102054.94;;;19.59;48.37
21109;BME280;10712;52.944;9.098;2023-05-13T05:58:14;102055.69;;;19.61;48.05
21109;BME280;10712;52.944;9.098;2023-05-13T06:00:42;102050.13;;;19.76;48.30
21109;BME280;10712;52.944;9.098;2023-05-13T06:03:08;102053.78;;;19.75;48.59
21109;BME280;10712;52.944;9.098;2023-05-13T06:05:34;102058.03;;;19.90;48.70
21109;BME280;10712;52.944;9.098;2023-05-13T06:08:00;102065.56;;;19.97;48.96
21109;BME280;10712;52.944;9.098;2023-05-13T06:10:26;102052.75;;;19.99;48.80
21109;BME280;10712;52.944;9.098;2023-05-13T06:12:52;102053.63;;;20.00;49.13
21109;BME280;10712;52.944;9.098;2023-05-13T06:15:18;102054.41;;;20.13;48.63
21109;BME280;10712;52.944;9.098;2023-05-13T06:17:44;102051.47;;;20.27;48.28
21109;BME280;10712;52.944;9.098;2023-05-13T06:20:10;102050.19;;;20.33;48.38
21109;BME280;10712;52.944;9.098;2023-05-13T06:22:36;102055.72;;;20.42;48.23
21109;BME280;10712;52.944;9.098;2023-05-13T06:25:02;102060.91;;;20.46;48.39
21109;BME280;10712;52.944;9.098;2023-05-13T06:27:28;102052.78;;;20.57;48.52
21109;BME280;10712;52.944;9.098;2023-05-13T06:29:54;102059.81;;;20.70;48.53
21109;BME280;10712;52.944;9.098;2023-05-13T06:32:20;102063.88;;;20.76;48.36
21109;BME280;10712;52.944;9.098;2023-05-13T06:34:46;102052.31;;;20.85;48.26
21109;BME280;10712;52.944;9.098;2023-05-13T06:37:12;102047.84;;;20.95;48.20
21109;BME280;10712;52.944;9.098;2023-05-13T06:39:41;102059.19;;;21.11;48.04
21109;BME280;10712;52.944;9.098;2023-05-13T06:42:07;102058.31;;;21.11;46.20
21109;BME280;10712;52.944;9.098;2023-05-13T06:44:38;102056.50;;;21.23;46.54
21109;BME280;10712;52.944;9.098;2023-05-13T06:47:05;102054.84;;;21.31;46.34
21109;BME280;10712;52.944;9.098;2023-05-13T06:49:32;102054.97;;;21.41;46.03
21109;BME280;10712;52.944;9.098;2023-05-13T06:51:58;102057.91;;;21.49;46.58
21109;BME280;10712;52.944;9.098;2023-05-13T06:54:24;102053.94;;;21.53;45.85
21109;BME280;10712;52.944;9.098;2023-05-13T06:56:51;102057.38;;;21.55;45.52
21109;BME280;10712;52.944;9.098;2023-05-13T06:59:17;102056.34;;;21.67;45.42
21109;BME280;10712;52.944;9.098;2023-05-13T07:01:44;102062.97;;;21.74;45.50
21109;BME280;10712;52.944;9.098;2023-05-13T07:04:11;102060.16;;;21.76;44.77
21109;BME280;10712;52.944;9.098;2023-05-13T07:06:36;102054.53;;;21.88;44.75
21109;BME280;10712;52.944;9.098;2023-05-13T07:09:02;102058.06;;;22.00;44.75
21109;BME280;10712;52.944;9.098;2023-05-13T07:11:28;102064.69;;;22.07;44.70
21109;BME280;10712;52.944;9.098;2023-05-13T07:13:54;102065.31;;;22.11;44.86
21109;BME280;10712;52.944;9.098;2023-05-13T07:16:20;102069.94;;;22.20;44.84
21109;BME280;10712;52.944;9.098;2023-05-13T07:18:46;102071.59;;;22.32;44.48
21109;BME280;10712;52.944;9.098;2023-05-13T07:21:13;102066.09;;;22.43;44.57
21109;BME280;10712;52.944;9.098;2023-05-13T07:23:40;102065.00;;;22.55;44.90
21109;BME280;10712;52.944;9.098;2023-05-13T07:26:05;102059.94;;;22.71;44.61
21109;BME280;10712;52.944;9.098;2023-05-13T07:28:31;102054.88;;;22.78;44.53
21109;BME280;10712;52.944;9.098;2023-05-13T07:30:57;102057.47;;;22.89;44.56
21109;BME280;10712;52.944;9.098;2023-05-13T07:33:23;102061.53;;;22.95;44.84
21109;BME280;10712;52.944;9.098;2023-05-13T07:35:49;102068.94;;;22.93;44.07
21109;BME280;10712;52.944;9.098;2023-05-13T07:38:15;102054.38;;;23.03;43.92
21109;BME280;10712;52.944;9.098;2023-05-13T07:40:40;102057.25;;;23.02;44.00
21109;BME280;10712;52.944;9.098;2023-05-13T07:43:06;102054.69;;;23.10;43.22
21109;BME280;10712;52.944;9.098;2023-05-13T07:45:32;102055.34;;;22.93;42.90
21109;BME280;10712;52.944;9.098;2023-05-13T07:47:59;102058.41;;;23.09;43.26
21109;BME280;10712;52.944;9.098;2023-05-13T07:50:24;102057.00;;;23.24;44.05
21109;BME280;10712;52.944;9.098;2023-05-13T07:52:50;102058.16;;;23.22;43.47
21109;BME280;10712;52.944;9.098;2023-05-13T07:55:17;102063.69;;;23.50;43.19
21109;BME280;10712;52.944;9.098;2023-05-13T07:57:43;102053.94;;;23.48;43.28
21109;BME280;10712;52.944;9.098;2023-05-13T08:00:09;102044.78;;;23.49;43.98
21109;BME280;10712;52.944;9.098;2023-05-13T08:02:42;102048.22;;;23.61;43.35
21109;BME280;10712;52.944;9.098;2023-05-13T08:05:09;102053.56;;;23.72;43.51
21109;BME280;10712;52.944;9.098;2023-05-13T08:07:35;102052.81;;;23.79;43.44
21109;BME280;10712;52.944;9.098;2023-05-13T08:10:01;102047.94;;;23.83;42.94
21109;BME280;10712;52.944;9.098;2023-05-13T08:12:27;102058.69;;;23.84;43.21
21109;BME280;10712;52.944;9.098;2023-05-13T08:14:53;102046.81;;;23.85;42.65
21109;BME280;10712;52.944;9.098;2023-05-13T08:17:19;102051.25;;;23.96;42.38
21109;BME280;10712;52.944;9.098;2023-05-13T08:19:45;102054.81;;;24.06;42.22
21109;BME280;10712;52.944;9.098;2023-05-13T08:22:11;102058.25;;;24.18;42.83
21109;BME280;10712;52.944;9.098;2023-05-13T08:24:37;102055.41;;;24.19;42.20
21109;BME280;10712;52.944;9.098;2023-05-13T08:27:05;102051.78;;;24.28;42.38
21109;BME280;10712;52.944;9.098;2023-05-13T08:29:31;102050.63;;;24.41;42.42
21109;BME280;10712;52.944;9.098;2023-05-13T08:31:56;102044.41;;;24.48;43.20
21109;BME280;10712;52.944;9.098;2023-05-13T08:34:22;102055.00;;;24.61;42.91
21109;BME280;10712;52.944;9.098;2023-05-13T08:36:48;102060.47;;;24.61;41.94
21109;BME280;10712;52.944;9.098;2023-05-13T08:39:14;102048.00;;;24.86;42.23
21109;BME280;10712;52.944;9.098;2023-05-13T08:41:42;102048.88;;;24.96;42.54
21109;BME280;10712;52.944;9.098;2023-05-13T08:44:11;102049.91;;;25.13;42.40
21109;BME280;10712;52.944;9.098;2023-05-13T08:46:40;102050.41;;;25.26;42.51
21109;BME280;10712;52.944;9.098;2023-05-13T08:49:10;102048.09;;;25.31;42.42
21109;BME280;10712;52.944;9.098;2023-05-13T08:51:36;102049.75;;;25.41;41.95
21109;BME280;10712;52.944;9.098;2023-05-13T08:54:02;102049.06;;;25.57;41.65
21109;BME280;10712;52.944;9.098;2023-05-13T08:56:29;102048.13;;;25.66;41.56
21109;BME280;10712;52.944;9.098;2023-05-13T08:58:55;102050.19;;;25.64;40.33
21109;BME280;10712;52.944;9.098;2023-05-13T09:01:22;102041.75;;;25.75;39.82
21109;BME280;10712;52.944;9.098;2023-05-13T09:03:57;102039.72;;;25.77;39.30
21109;BME280;10712;52.944;9.098;2023-05-13T09:06:24;102044.31;;;25.77;39.06
21109;BME280;10712;52.944;9.098;2023-05-13T09:08:50;102048.38;;;25.73;37.38
21109;BME280;10712;52.944;9.098;2023-05-13T09:11:17;102039.53;;;25.97;39.02
21109;BME280;10712;52.944;9.098;2023-05-13T09:13:43;102035.31;;;26.20;39.33
21109;BME280;10712;52.944;9.098;2023-05-13T09:16:10;102038.72;;;26.40;39.33
21109;BME280;10712;52.944;9.098;2023-05-13T09:18:39;102033.00;;;26.59;38.70
21109;BME280;10712;52.944;9.098;2023-05-13T09:21:24;102027.13;;;26.80;37.75
21109;BME280;10712;52.944;9.098;2023-05-13T09:24:04;102027.25;;;26.96;37.70
21109;BME280;10712;52.944;9.098;2023-05-13T09:26:30;102029.00;;;27.13;37.44
21109;BME280;10712;52.944;9.098;2023-05-13T09:29:25;102030.41;;;27.25;37.35
21109;BME280;10712;52.944;9.098;2023-05-13T09:32:00;102032.84;;;27.36;37.19
21109;BME280;10712;52.944;9.098;2023-05-13T09:34:30;102025.31;;;27.47;37.11
21109;BME280;10712;52.944;9.098;2023-05-13T09:37:05;102018.81;;;27.48;36.90
21109;BME280;10712;52.944;9.098;2023-05-13T09:39:37;102027.06;;;27.56;36.93
21109;BME280;10712;52.944;9.098;2023-05-13T09:42:04;102018.19;;;27.62;37.18
21109;BME280;10712;52.944;9.098;2023-05-13T09:44:32;102022.81;;;27.69;36.92
21109;BME280;10712;52.944;9.098;2023-05-13T09:46:58;102014.09;;;27.58;36.63
21109;BME280;10712;52.944;9.098;2023-05-13T09:49:27;102014.56;;;27.45;36.37
21109;BME280;10712;52.944;9.098;2023-05-13T09:51:52;102021.06;;;27.44;36.50
21109;BME280;10712;52.944;9.098;2023-05-13T09:54:18;102014.00;;;27.33;35.77
21109;BME280;10712;52.944;9.098;2023-05-13T09:56:44;102015.38;;;27.45;36.34
21109;BME280;10712;52.944;9.098;2023-05-13T09:59:10;102011.66;;;27.55;36.27
21109;BME280;10712;52.944;9.098;2023-05-13T10:01:37;102007.75;;;27.65;36.67
21109;BME280;10712;52.944;9.098;2023-05-13T10:04:03;102017.50;;;27.84;36.87
21109;BME280;10712;52.944;9.098;2023-05-13T10:06:31;102010.16;;;27.93;36.29
21109;BME280;10712;52.944;9.098;2023-05-13T10:09:00;102008.59;;;27.98;35.23
21109;BME280;10712;52.944;9.098;2023-05-13T10:11:32;101997.97;;;28.11;35.44
21109;BME280;10712;52.944;9.098;2023-05-13T10:14:01;101999.88;;;28.19;35.89
21109;BME280;10712;52.944;9.098;2023-05-13T10:16:31;101992.50;;;28.28;35.60
21109;BME280;10712;52.944;9.098;2023-05-13T10:18:58;101990.78;;;28.27;36.27
21109;BME280;10712;52.944;9.098;2023-05-13T10:21:27;101997.28;;;28.34;35.69
21109;BME280;10712;52.944;9.098;2023-05-13T10:23:53;101998.28;;;28.41;35.60
21109;BME280;10712;52.944;9.098;2023-05-13T10:26:21;101998.44;;;28.47;35.79
21109;BME280;10712;52.944;9.098;2023-05-13T10:28:48;101989.34;;;28.55;35.78
21109;BME280;10712;52.944;9.098;2023-05-13T10:31:17;101996.50;;;28.56;35.88
21109;BME280;10712;52.944;9.098;2023-05-13T10:33:44;101984.66;;;28.64;35.79
21109;BME280;10712;52.944;9.098;2023-05-13T10:42:35;101970.06;;;28.79;33.77
21109;BME280;10712;52.944;9.098;2023-05-13T10:45:03;101972.03;;;28.93;33.57
21109;BME280;10712;52.944;9.098;2023-05-13T10:47:34;101978.19;;;29.04;33.79
21109;BME280;10712;52.944;9.098;2023-05-13T10:50:05;101970.25;;;29.09;33.67
21109;BME280;10712;52.944;9.098;2023-05-13T10:52:45;101975.56;;;29.10;33.54
21109;BME280;10712;52.944;9.098;2023-05-13T10:55:17;101971.38;;;29.22;33.55
21109;BME280;10712;52.944;9.098;2023-05-13T10:58:09;101971.19;;;29.24;32.72
21109;BME280;10712;52.944;9.098;2023-05-13T11:00:38;101969.44;;;29.31;32.13
21109;BME280;10712;52.944;9.098;2023-05-13T11:03:31;101969.44;;;29.31;32.01
21109;BME280;10712;52.944;9.098;2023-05-13T11:06:14;101959.47;;;29.38;32.39
21109;BME280;10712;52.944;9.098;2023-05-13T11:08:44;101962.50;;;29.43;32.23
21109;BME280;10712;52.944;9.098;2023-05-13T11:11:29;101954.59;;;29.40;31.64
21109;BME280;10712;52.944;9.098;2023-05-13T11:14:14;101951.63;;;29.50;32.40
21109;BME280;10712;52.944;9.098;2023-05-13T11:19:45;101954.19;;;29.51;30.36
21109;BME280;10712;52.944;9.098;2023-05-13T11:22:15;101955.75;;;29.68;31.43
21109;BME280;10712;52.944;9.098;2023-05-13T11:25:05;101952.34;;;29.66;31.07
21109;BME280;10712;52.944;9.098;2023-05-13T11:27:38;101953.47;;;29.57;31.35
21109;BME280;10712;52.944;9.098;2023-05-13T11:30:25;101951.72;;;29.33;32.83
21109;BME280;10712;52.944;9.098;2023-05-13T11:32:54;101947.91;;;29.12;32.51
21109;BME280;10712;52.944;9.098;2023-05-13T11:35:24;101946.53;;;29.16;33.03
21109;BME280;10712;52.944;9.098;2023-05-13T11:37:51;101939.88;;;29.33;32.68
21109;BME280;10712;52.944;9.098;2023-05-13T11:40:35;101934.53;;;29.40;31.55
21109;BME280;10712;52.944;9.098;2023-05-13T11:43:04;101949.69;;;29.58;31.54
21109;BME280;10712;52.944;9.098;2023-05-13T11:45:31;101946.25;;;29.56;31.22
21109;BME280;10712;52.944;9.098;2023-05-13T11:48:25;101941.09;;;29.39;30.97
21109;BME280;10712;52.944;9.098;2023-05-13T11:50:51;101945.00;;;29.44;31.33
21109;BME280;10712;52.944;9.098;2023-05-13T11:53:21;101943.56;;;29.48;31.41
21109;BME280;10712;52.944;9.098;2023-05-13T11:55:48;101947.69;;;29.52;31.55
21109;BME280;10712;52.944;9.098;2023-05-13T11:58:14;101945.16;;;29.65;31.40
21109;BME280;10712;52.944;9.098;2023-05-13T12:00:40;101947.25;;;29.78;30.40
21109;BME280;10712;52.944;9.098;2023-05-13T12:03:11;101940.53;;;29.81;29.33
21109;BME280;10712;52.944;9.098;2023-05-13T12:05:40;101945.09;;;29.88;29.75
21109;BME280;10712;52.944;9.098;2023-05-13T12:08:09;101935.59;;;29.99;29.27
21109;BME280;10712;52.944;9.098;2023-05-13T12:10:42;101936.34;;;30.07;28.11
21109;BME280;10712;52.944;9.098;2023-05-13T12:13:08;101943.00;;;30.13;28.06
21109;BME280;10712;52.944;9.098;2023-05-13T12:15:34;101936.91;;;30.18;28.68
21109;BME280;10712;52.944;9.098;2023-05-13T12:18:00;101936.75;;;30.19;29.23
21109;BME280;10712;52.944;9.098;2023-05-13T12:20:26;101935.38;;;30.15;30.45
21109;BME280;10712;52.944;9.098;2023-05-13T12:22:54;101937.41;;;30.21;30.38
21109;BME280;10712;52.944;9.098;2023-05-13T12:28:23;101943.94;;;30.05;28.96
21109;BME280;10712;52.944;9.098;2023-05-13T12:33:31;101948.13;;;29.79;29.00
21109;BME280;10712;52.944;9.098;2023-05-13T12:36:27;101942.47;;;29.57;29.25
21109;BME280;10712;52.944;9.098;2023-05-13T12:39:06;101943.94;;;29.45;30.16
21109;BME280;10712;52.944;9.098;2023-05-13T12:41:40;101944.03;;;29.29;30.00
21109;BME280;10712;52.944;9.098;2023-05-13T12:44:08;101949.19;;;29.32;30.42
21109;BME280;10712;52.944;9.098;2023-05-13T12:46:35;101949.44;;;29.45;29.79
21109;BME280;10712;52.944;9.098;2023-05-13T12:49:04;101944.84;;;29.60;29.98
21109;BME280;10712;52.944;9.098;2023-05-13T12:51:30;101947.44;;;29.76;29.71
21109;BME280;10712;52.944;9.098;2023-05-13T12:53:58;101949.72;;;29.88;29.51
21109;BME280;10712;52.944;9.098;2023-05-13T12:56:24;101943.53;;;29.94;29.16
21109;BME280;10712;52.944;9.098;2023-05-13T12:58:52;101934.56;;;30.14;27.64
21109;BME280;10712;52.944;9.098;2023-05-13T13:01:19;101931.69;;;30.23;26.76
21109;BME280;10712;52.944;9.098;2023-05-13T13:03:45;101931.06;;;30.35;26.27
21109;BME280;10712;52.944;9.098;2023-05-13T13:06:12;101927.25;;;30.36;27.35
21109;BME280;10712;52.944;9.098;2023-05-13T13:08:38;101928.59;;;30.40;27.53
21109;BME280;10712;52.944;9.098;2023-05-13T13:11:05;101935.13;;;30.39;28.22
21109;BME280;10712;52.944;9.098;2023-05-13T13:13:31;101935.22;;;30.31;28.59